Time;durP1;ratioP1;P1;durP2;ratioP2;P2;SDS_P1;SDS_P2;PMS_P1;PMS_P2;Temp;Humidity;BMP_temperature;BMP_pressure;BME280_temperature;BME280_humidity;BME280_pressure;Samples;Min_cycle;Max_cycle;Signal;HPM_P1;HPM_P2
2021/08/09 00:00:07;;;;;;;79.43;37.30;;;;;;;18.05;83.40;99894.63;5150505;27;20471;-73
2021/08/09 00:02:36;;;;;;;84.57;39.30;;;;;;;18.03;83.69;99894.78;5153218;27;20038;-71
2021/08/09 00:05:03;;;;;;;81.07;39.70;;;;;;;18.03;84.06;99885.91;5147472;27;20126;-73
2021/08/09 00:07:29;;;;;;;92.25;43.63;;;;;;;18.03;84.22;99888.56;5153649;27;20115;-73
2021/08/09 00:09:55;;;;;;;75.30;35.22;;;;;;;18.01;84.16;99894.09;5169660;27;20042;-73
2021/08/09 00:12:21;;;;;;;72.35;35.17;;;;;;;17.98;83.86;99893.59;5174388;27;20128;-73
2021/08/09 00:14:46;;;;;;;80.38;36.03;;;;;;;17.93;83.97;99900.22;5174508;27;20042;-70
2021/08/09 00:17:12;;;;;;;83.15;36.47;;;;;;;17.90;84.12;99900.53;5158000;27;20046;-71
2021/08/09 00:19:38;;;;;;;80.00;39.08;;;;;;;17.86;84.49;99893.84;5155922;27;20038;-72
2021/08/09 00:22:04;;;;;;;79.40;39.78;;;;;;;17.86;84.23;99893.84;5168012;27;21679;-71
2021/08/09 00:24:30;;;;;;;77.55;39.60;;;;;;;17.84;84.55;99895.81;5142616;27;20114;-71
2021/08/09 00:26:56;;;;;;;85.03;41.10;;;;;;;17.82;84.49;99897.84;5143245;27;20039;-71
2021/08/09 00:29:22;;;;;;;78.75;36.83;;;;;;;17.82;84.43;99902.34;5166689;27;20034;-71
2021/08/09 00:31:48;;;;;;;69.82;32.38;;;;;;;17.79;83.89;99898.16;5134803;27;20038;-70
2021/08/09 00:34:14;;;;;;;70.72;31.75;;;;;;;17.75;83.43;99899.47;5155368;27;20043;-70
2021/08/09 00:36:40;;;;;;;75.00;35.42;;;;;;;17.72;83.30;99889.94;5123633;27;20058;-72
2021/08/09 00:39:07;;;;;;;76.75;35.78;;;;;;;17.71;83.84;99893.59;5136116;27;20601;-71
2021/08/09 00:41:35;;;;;;;84.70;36.45;;;;;;;17.71;83.82;99895.44;5149402;27;20038;-70
2021/08/09 00:44:02;;;;;;;79.15;38.40;;;;;;;17.72;84.13;99902.44;5134476;27;20042;-69
2021/08/09 00:46:31;;;;;;;75.15;35.60;;;;;;;17.71;84.22;99898.13;5134836;27;20062;-70
2021/08/09 00:48:58;;;;;;;73.95;36.88;;;;;;;17.69;84.28;99892.09;5134928;27;20046;-70
2021/08/09 00:51:24;;;;;;;72.13;33.90;;;;;;;17.66;84.49;99887.03;5162758;27;20072;-72
2021/08/09 00:53:53;;;;;;;71.65;32.13;;;;;;;17.60;83.90;99883.19;5154709;27;20038;-71
2021/08/09 00:56:20;;;;;;;61.42;31.20;;;;;;;17.56;83.43;99888.00;5155303;27;20041;-72
2021/08/09 00:58:46;;;;;;;66.75;31.98;;;;;;;17.51;83.23;99887.66;5153122;27;20042;-71
2021/08/09 01:01:12;;;;;;;75.38;33.50;;;;;;;17.48;83.46;99889.78;5117597;27;20067;-71
2021/08/09 01:03:40;;;;;;;;;;;;;;;17.41;83.57;99881.56;5155834;27;20087;-71
2021/08/09 01:06:06;;;;;;;68.68;33.60;;;;;;;17.31;84.44;99879.00;5127586;27;20018;-71
2021/08/09 01:09:02;;;;;;;81.75;35.67;;;;;;;17.27;84.53;99883.81;5140605;27;20501;-72
2021/08/09 01:11:32;;;;;;;;;;;;;;;17.25;84.81;99883.13;5158128;27;20066;-71
2021/08/09 01:14:27;;;;;;;69.20;31.15;;;;;;;17.23;84.54;99887.78;5107162;27;19963;-71
2021/08/09 01:16:56;;;;;;;76.45;33.78;;;;;;;17.25;84.50;99887.66;5138124;27;20042;-72
2021/08/09 01:19:38;;;;;;;73.47;32.78;;;;;;;17.25;84.28;99879.63;5122023;27;20054;-72
2021/08/09 01:22:20;;;;;;;75.65;32.95;;;;;;;17.25;84.40;99877.78;5131093;27;20051;-73
2021/08/09 01:24:50;;;;;;;68.93;32.60;;;;;;;17.26;84.27;99870.63;5130829;27;20400;-69
2021/08/09 01:27:22;;;;;;;81.53;35.63;;;;;;;17.27;84.34;99875.81;5124774;27;20098;-69
2021/08/09 01:29:50;;;;;;;69.75;31.75;;;;;;;17.29;84.44;99876.47;5139731;27;20494;-72
2021/08/09 01:32:17;;;;;;;61.42;31.80;;;;;;;17.28;84.58;99884.66;5138784;27;20049;-73
2021/08/09 01:34:43;;;;;;;77.10;33.58;;;;;;;17.21;83.87;99883.59;5139343;27;20047;-71
2021/08/09 01:37:09;;;;;;;71.45;32.80;;;;;;;17.17;83.98;99883.09;5148439;27;20456;-72
2021/08/09 01:39:38;;;;;;;63.33;33.22;;;;;;;17.13;83.83;99887.91;5158182;27;20038;-73
2021/08/09 01:42:05;;;;;;;71.45;32.80;;;;;;;17.09;84.41;99883.03;5127313;27;20069;-71
2021/08/09 01:44:33;;;;;;;68.75;31.20;;;;;;;17.10;84.41;99882.03;5136834;27;20453;-71
2021/08/09 01:46:59;;;;;;;80.13;33.65;;;;;;;17.10;84.43;99882.84;5137186;27;20059;-71
2021/08/09 01:49:26;;;;;;;71.97;32.75;;;;;;;17.13;84.44;99892.41;5138542;27;20137;-71
2021/08/09 01:51:55;;;;;;;88.95;33.92;;;;;;;17.10;84.25;99884.69;5153501;27;20050;-71
2021/08/09 01:54:21;;;;;;;77.18;31.83;;;;;;;17.07;84.12;99893.00;5158526;27;20542;-71
2021/08/09 01:56:48;;;;;;;79.45;31.50;;;;;;;17.06;84.18;99897.53;5141247;27;20042;-72
2021/08/09 01:59:14;;;;;;;67.65;30.75;;;;;;;17.07;83.89;99895.69;5153784;27;20042;-71
2021/08/09 02:01:41;;;;;;;78.93;34.38;;;;;;;17.08;84.23;99905.38;5112357;27;20043;-72
2021/08/09 02:04:08;;;;;;;84.10;34.33;;;;;;;17.06;84.50;99892.19;5135124;27;20509;-72
2021/08/09 02:06:35;;;;;;;72.32;34.45;;;;;;;17.06;84.63;99907.38;5124917;27;20062;-70
2021/08/09 02:09:06;;;;;;;82.72;39.35;;;;;;;17.09;85.45;99917.75;5123336;27;20047;-72
2021/08/09 02:11:45;;;;;;;87.05;40.80;;;;;;;17.14;85.89;99912.78;5118002;27;20039;-70
2021/08/09 02:14:15;;;;;;;97.95;41.90;;;;;;;17.17;86.18;99914.31;5154096;27;20502;-71
2021/08/09 02:17:04;;;;;;;81.95;40.03;;;;;;;17.20;86.08;99917.50;5139978;27;20095;-71
2021/08/09 02:19:39;;;;;;;90.80;39.70;;;;;;;17.20;85.70;99924.72;5146265;27;20542;-72
2021/08/09 02:22:14;;;;;;;82.72;39.50;;;;;;;17.19;85.67;99931.88;5136144;27;20038;-72
2021/08/09 02:24:52;;;;;;;82.93;40.50;;;;;;;17.21;85.55;99932.56;5132834;27;20039;-72
2021/08/09 02:27:22;;;;;;;78.32;37.45;;;;;;;17.24;85.47;99934.91;5136916;27;20051;-72
2021/08/09 02:29:53;;;;;;;74.95;33.88;;;;;;;17.23;84.94;99929.72;5144883;27;20050;-70
2021/08/09 02:32:24;;;;;;;71.05;33.15;;;;;;;17.17;84.54;99925.00;5146090;27;20583;-72
2021/08/09 02:34:52;;;;;;;84.60;35.63;;;;;;;17.11;84.64;99932.66;5122811;27;20043;-71
2021/08/09 02:37:18;;;;;;;80.22;34.72;;;;;;;17.05;84.21;99927.09;5127748;27;20051;-71
2021/08/09 02:39:47;;;;;;;75.32;32.80;;;;;;;17.06;84.36;99931.41;5145433;27;20517;-72
2021/08/09 02:42:15;;;;;;;72.82;31.52;;;;;;;17.08;84.00;99934.78;5137033;27;20091;-72
2021/08/09 02:44:41;;;;;;;75.03;32.50;;;;;;;17.10;83.66;99936.31;5155669;27;20045;-70
2021/08/09 02:47:07;;;;;;;84.65;37.75;;;;;;;17.10;84.42;99930.13;5140619;27;20140;-69
2021/08/09 02:49:34;;;;;;;80.57;37.70;;;;;;;17.15;84.91;99925.16;5140355;27;20046;-70
2021/08/09 02:52:02;;;;;;;82.35;36.88;;;;;;;17.23;84.85;99929.72;5147214;27;20554;-71
2021/08/09 02:54:30;;;;;;;82.78;37.22;;;;;;;17.28;84.61;99922.94;5139291;27;20093;-72
2021/08/09 02:56:57;;;;;;;79.88;35.22;;;;;;;17.27;84.32;99923.06;5137749;27;20411;-69
2021/08/09 02:59:23;;;;;;;64.03;31.88;;;;;;;17.25;83.37;99928.56;5123430;27;20042;-71
2021/08/09 03:01:49;;;;;;;68.85;32.67;;;;;;;17.24;83.36;99926.88;5119444;27;20039;-70
2021/08/09 03:04:16;;;;;;;75.35;33.17;;;;;;;17.27;83.04;99931.94;5118065;27;20039;-72
2021/08/09 03:06:42;;;;;;;82.00;33.78;;;;;;;17.32;82.90;99927.94;5117782;27;20042;-71
2021/08/09 03:09:08;;;;;;;72.60;34.35;;;;;;;17.38;83.01;99927.31;5146767;27;20691;-69
2021/08/09 03:11:35;;;;;;;80.05;37.78;;;;;;;17.44;83.37;99929.38;5139787;27;20129;-70
2021/08/09 03:14:01;;;;;;;86.20;36.60;;;;;;;17.48;83.57;99928.06;5135579;27;20507;-73
2021/08/09 03:16:27;;;;;;;90.13;36.85;;;;;;;17.58;83.52;99931.50;5152214;27;20046;-70
2021/08/09 03:19:01;;;;;;;85.68;38.75;;;;;;;17.66;83.22;99930.69;5131848;27;20042;-72
2021/08/09 03:21:27;;;;;;;85.85;34.08;;;;;;;17.75;82.97;99935.06;5136486;27;20051;-73
2021/08/09 03:23:52;;;;;;;73.15;32.17;;;;;;;17.69;81.19;99940.22;5144965;27;20411;-73
2021/08/09 03:26:19;;;;;;;69.88;33.47;;;;;;;17.63;81.09;99939.88;5123638;27;20107;-70
2021/08/09 03:28:45;;;;;;;84.80;36.63;;;;;;;17.65;81.24;99938.88;5115808;27;20078;-75
2021/08/09 03:31:11;;;;;;;83.30;35.08;;;;;;;17.69;81.12;99940.22;5116071;27;20035;-73
2021/08/09 03:33:37;;;;;;;71.07;33.08;;;;;;;17.78;81.00;99944.63;5121493;27;20438;-72
2021/08/09 03:36:03;;;;;;;70.07;33.35;;;;;;;17.85;80.38;99940.31;5129363;27;20529;-73
2021/08/09 03:38:29;;;;;;;76.03;33.55;;;;;;;17.96;80.14;99939.25;5115790;27;20504;-73
2021/08/09 03:40:55;;;;;;;69.90;33.33;;;;;;;18.12;79.85;99941.16;5118947;27;20049;-72
2021/08/09 03:43:21;;;;;;;72.03;33.05;;;;;;;18.34;79.46;99945.06;5143148;27;20038;-71
2021/08/09 03:45:47;;;;;;;77.68;35.83;;;;;;;18.49;79.05;99942.63;5123956;27;20138;-70
2021/08/09 03:48:13;;;;;;;68.78;33.30;;;;;;;18.69;78.61;99939.63;5126438;27;20130;-74
2021/08/09 03:50:39;;;;;;;75.60;34.30;;;;;;;18.87;78.15;99945.69;5126322;27;20046;-73
2021/08/09 03:53:05;;;;;;;96.60;54.10;;;;;;;19.06;78.00;99944.56;5141487;27;20456;-71
2021/08/09 03:55:31;;;;;;;91.22;45.20;;;;;;;19.21;77.38;99951.94;5154735;27;20034;-71
2021/08/09 03:57:57;;;;;;;83.30;39.25;;;;;;;19.39;76.89;99946.44;5153724;27;20107;-71
2021/08/09 04:00:23;;;;;;;81.03;36.65;;;;;;;19.56;76.53;99944.53;5148178;27;20039;-74
2021/08/09 04:02:50;;;;;;;80.40;38.58;;;;;;;19.71;75.90;99937.47;5138055;27;20038;-70
2021/08/09 04:05:28;;;;;;;87.68;41.63;;;;;;;19.91;75.71;99941.66;5135825;27;20043;-72
2021/08/09 04:07:55;;;;;;;86.82;44.00;;;;;;;20.13;75.65;99940.88;5154041;27;20047;-73
2021/08/09 04:10:21;;;;;;;91.30;43.15;;;;;;;20.36;74.99;99932.91;5135806;27;20125;-71
2021/08/09 04:12:49;;;;;;;91.03;44.63;;;;;;;20.59;74.42;99931.25;5135648;27;20065;-71
2021/08/09 04:15:14;;;;;;;88.28;42.47;;;;;;;20.77;74.02;99942.59;5153590;27;20486;-73
2021/08/09 04:17:42;;;;;;;90.78;41.22;;;;;;;21.01;73.51;99943.44;5153514;27;20413;-72
2021/08/09 04:20:09;;;;;;;78.93;39.00;;;;;;;21.13;72.97;99935.75;5135123;27;20089;-71
2021/08/09 04:22:35;;;;;;;73.65;35.95;;;;;;;21.22;72.94;99944.59;5153000;27;20134;-73
2021/08/09 04:25:02;;;;;;;77.47;39.97;;;;;;;21.45;72.41;99948.09;5133960;27;20077;-71
2021/08/09 04:27:28;;;;;;;72.57;38.83;;;;;;;22.53;70.41;99942.34;5134477;27;20042;-74
2021/08/09 04:29:54;;;;;;;71.88;36.97;;;;;;;23.65;67.08;99950.00;5152616;27;20153;-72
2021/08/09 04:32:20;;;;;;;75.90;36.92;;;;;;;24.66;62.83;99936.00;5134513;27;20051;-71
2021/08/09 04:34:49;;;;;;;58.25;31.15;;;;;;;25.54;60.00;99930.66;5134238;27;20066;-75
2021/08/09 04:37:16;;;;;;;60.78;32.47;;;;;;;26.34;58.13;99941.25;5134435;27;20089;-74
2021/08/09 04:39:43;;;;;;;65.65;35.28;;;;;;;27.29;53.96;99935.03;5153072;27;20522;-71
2021/08/09 04:42:10;;;;;;;63.63;35.25;;;;;;;27.56;52.91;99937.53;5135009;27;20034;-74
2021/08/09 04:44:37;;;;;;;68.90;36.58;;;;;;;28.54;50.58;99932.22;5135318;27;20054;-73
2021/08/09 04:47:03;;;;;;;61.80;35.72;;;;;;;29.07;48.44;99929.78;5134588;27;20054;-73
2021/08/09 04:49:31;;;;;;;69.53;37.22;;;;;;;29.51;47.08;99927.59;5135238;27;20091;-76
2021/08/09 04:51:57;;;;;;;68.35;36.85;;;;;;;30.32;46.13;99926.88;5153493;27;20419;-73
2021/08/09 04:54:23;;;;;;;61.63;35.25;;;;;;;31.24;43.88;99926.88;5134878;27;20046;-74
2021/08/09 04:56:49;;;;;;;;;;;;;;;31.44;42.23;99933.72;5135279;27;20495;-74
2021/08/09 04:59:16;;;;;;;;;;;;;;;31.47;42.07;99930.50;5135258;27;20389;-74
2021/08/09 05:01:42;;;;;;;68.97;38.90;;;;;;;32.14;40.83;99934.16;5134746;27;19946;-71
2021/08/09 05:04:09;;;;;;;69.13;39.45;;;;;;;32.21;40.48;99936.72;5153453;27;20064;-73
2021/08/09 05:06:35;;;;;;;79.22;40.90;;;;;;;32.64;39.29;99924.03;5134988;27;20523;-71
2021/08/09 05:09:01;;;;;;;77.28;40.33;;;;;;;32.92;37.95;99930.34;5134186;27;20141;-74
2021/08/09 05:11:28;;;;;;;;;;;;;;;33.04;37.08;99932.91;5135372;27;20147;-71
2021/08/09 05:14:00;;;;;;;68.30;39.10;;;;;;;33.53;37.75;99929.97;5134538;27;19957;-73
2021/08/09 05:16:27;;;;;;;68.25;38.85;;;;;;;33.62;37.13;99927.59;5134412;27;20103;-74
2021/08/09 05:18:56;;;;;;;58.75;34.35;;;;;;;34.76;36.19;99922.50;5153113;27;20482;-74
2021/08/09 05:21:22;;;;;;;65.95;37.03;;;;;;;35.74;33.84;99914.16;5153312;27;20042;-75
2021/08/09 05:23:48;;;;;;;63.17;36.08;;;;;;;35.73;33.52;99912.50;5134446;27;20044;-74
2021/08/09 05:26:15;;;;;;;65.50;35.30;;;;;;;35.68;33.58;99913.38;5153208;27;20045;-76
2021/08/09 05:28:41;;;;;;;61.33;35.65;;;;;;;36.36;31.70;99919.41;5134864;27;20394;-72
2021/08/09 05:31:07;;;;;;;55.28;35.67;;;;;;;35.30;32.26;99905.47;5134105;27;20243;-73
2021/08/09 05:33:32;;;;;;;59.53;36.03;;;;;;;34.93;32.79;99912.09;5153383;27;20351;-74
2021/08/09 05:35:58;;;;;;;53.00;35.80;;;;;;;35.13;33.13;99915.91;5134577;27;20072;-74
2021/08/09 05:38:24;;;;;;;50.23;30.13;;;;;;;34.72;32.33;99915.88;5152717;27;20050;-77
2021/08/09 05:40:50;;;;;;;47.67;30.17;;;;;;;34.96;32.99;99911.53;5153174;27;20276;-74
2021/08/09 05:43:16;;;;;;;56.38;30.05;;;;;;;35.62;31.60;99912.56;5134971;27;20091;-77
2021/08/09 05:45:42;;;;;;;55.10;33.03;;;;;;;35.30;32.33;99921.13;5134076;27;20145;-73
2021/08/09 05:48:08;;;;;;;60.43;33.83;;;;;;;35.09;32.86;99909.31;5152777;27;20146;-74
2021/08/09 05:50:34;;;;;;;;;;;;;;;36.11;31.42;99902.75;5138276;27;20302;-71
2021/08/09 05:53:06;;;;;;;67.70;37.80;;;;;;;35.57;31.36;99904.31;5137991;27;20022;-70
2021/08/09 05:55:34;;;;;;;67.95;38.42;;;;;;;35.67;31.18;99908.97;5138295;27;20179;-73
2021/08/09 05:58:05;;;;;;;74.18;35.35;;;;;;;36.19;30.70;99903.25;5138125;27;20039;-72
2021/08/09 06:00:33;;;;;;;70.70;38.47;;;;;;;37.11;29.07;99895.44;5137957;27;20038;-74
2021/08/09 06:03:03;;;;;;;58.65;32.67;;;;;;;36.14;30.29;99898.59;5137893;27;20049;-75
2021/08/09 06:05:57;;;;;;;;;;;;;;;35.29;31.66;99898.31;5092418;28;20044;-73
2021/08/09 06:08:29;;;;;;;89.55;32.50;;;;;;;34.55;32.89;99906.00;5075816;28;19920;-72
2021/08/09 06:10:57;;;;;;;64.00;35.67;;;;;;;33.45;34.73;99902.22;5092380;28;20200;-74
2021/08/09 06:13:23;;;;;;;62.45;34.33;;;;;;;33.33;35.24;99908.75;5092360;28;20040;-76
2021/08/09 06:15:49;;;;;;;61.53;35.30;;;;;;;33.69;34.14;99911.69;5092242;28;20059;-73
2021/08/09 06:18:19;;;;;;;59.42;35.13;;;;;;;33.80;34.09;99909.03;5092139;28;20302;-76
2021/08/09 06:20:45;;;;;;;54.78;32.97;;;;;;;34.31;33.58;99906.47;5075379;28;20096;-77
2021/08/09 06:23:11;;;;;;;59.58;32.08;;;;;;;34.11;33.15;99895.41;5092021;28;20572;-75
2021/08/09 06:25:38;;;;;;;55.60;35.28;;;;;;;33.25;34.48;99901.00;5075257;28;20046;-71
2021/08/09 06:28:04;;;;;;;53.05;32.60;;;;;;;34.31;33.42;99898.22;5075406;28;20048;-76
2021/08/09 06:30:32;;;;;;;57.17;33.45;;;;;;;34.70;32.88;99896.94;5075104;28;20059;-76
2021/08/09 06:32:58;;;;;;;60.22;35.00;;;;;;;34.74;32.50;99891.72;5075091;28;20036;-75
2021/08/09 06:35:24;;;;;;;56.25;32.17;;;;;;;36.13;31.07;99891.44;5075012;28;20063;-72
2021/08/09 06:37:51;;;;;;;58.60;32.08;;;;;;;36.69;30.11;99889.44;5074808;28;20059;-76
2021/08/09 06:40:18;;;;;;;56.95;33.67;;;;;;;36.58;29.20;99884.00;5074901;28;20046;-77
2021/08/09 06:42:47;;;;;;;57.90;34.00;;;;;;;37.62;28.51;99883.06;5117396;27;20127;-76
2021/08/09 06:45:18;;;;;;;63.30;33.08;;;;;;;38.42;26.96;99884.25;5137153;27;20131;-72
2021/08/09 06:47:46;;;;;;;67.78;37.90;;;;;;;39.12;26.10;99890.81;5137303;27;20042;-73
2021/08/09 06:50:12;;;;;;;59.13;31.98;;;;;;;38.92;26.84;99882.88;5155888;27;20570;-72
2021/08/09 06:52:38;;;;;;;59.40;31.05;;;;;;;39.74;25.45;99878.59;5137078;27;20061;-71
2021/08/09 06:55:06;;;;;;;53.10;31.63;;;;;;;39.51;25.53;99885.16;5136591;27;20090;-74
2021/08/09 06:57:35;;;;;;;54.17;31.42;;;;;;;39.92;25.09;99878.78;5137114;27;20045;-76
2021/08/09 07:00:04;;;;;;;51.92;30.25;;;;;;;40.11;24.72;99887.78;5136944;27;20049;-73
2021/08/09 07:02:30;;;;;;;52.13;30.75;;;;;;;39.03;25.88;99889.06;5137086;27;20095;-74
2021/08/09 07:04:56;;;;;;;52.70;29.00;;;;;;;39.81;25.05;99888.44;5155455;27;20471;-77
2021/08/09 07:07:23;;;;;;;47.65;25.95;;;;;;;39.98;25.68;99905.25;5136962;27;20050;-75
2021/08/09 07:09:49;;;;;;;;;;;;;;;39.97;24.55;99903.59;5137273;27;20035;-73
2021/08/09 07:12:14;;;;;;;37.25;23.92;;;;;;;40.75;24.28;99899.88;5136938;27;20416;-73
2021/08/09 07:14:40;;;;;;;;;;;;;;;40.63;23.44;99900.47;5137480;27;20039;-74
2021/08/09 07:17:07;;;;;;;39.53;24.80;;;;;;;41.60;22.88;99890.72;5136598;27;19941;-77
2021/08/09 07:19:35;;;;;;;43.63;26.50;;;;;;;41.47;22.19;99884.13;5137106;27;20406;-72
2021/08/09 07:22:03;;;;;;;37.95;23.73;;;;;;;40.62;23.11;99890.50;5136557;27;20126;-75
2021/08/09 07:24:29;;;;;;;39.75;26.25;;;;;;;41.04;22.49;99880.03;5136646;27;20038;-76
2021/08/09 07:26:55;;;;;;;;;;;;;;;41.30;22.57;99879.34;5137051;27;20042;-77
2021/08/09 07:29:22;;;;;;;50.70;23.77;;;;;;;40.55;23.58;99879.03;5136234;27;19918;-78
2021/08/09 07:31:49;;;;;;;41.63;24.90;;;;;;;41.66;22.43;99866.38;5136696;27;20038;-76
2021/08/09 07:34:15;;;;;;;;;;;;;;;42.37;21.48;99865.34;5136976;27;20095;-74
2021/08/09 07:36:41;;;;;;;46.30;26.38;;;;;;;41.99;21.02;99869.56;5136604;27;19926;-74
2021/08/09 07:39:07;;;;;;;;;;;;;;;42.32;21.50;99865.53;5136434;27;20081;-76
2021/08/09 07:41:34;;;;;;;44.72;26.10;;;;;;;41.70;22.19;99870.97;5136299;27;19919;-75
2021/08/09 07:44:00;;;;;;;40.72;24.67;;;;;;;43.06;21.03;99871.13;5154747;27;20539;-74
2021/08/09 07:46:27;;;;;;;37.53;24.27;;;;;;;42.92;20.54;99869.38;5132382;27;20055;-78
2021/08/09 07:48:56;;;;;;;33.20;21.40;;;;;;;44.14;20.05;99864.31;5132866;27;20115;-79
2021/08/09 07:51:23;;;;;;;34.83;20.75;;;;;;;43.36;19.92;99860.88;5132611;27;20071;-76
2021/08/09 07:53:49;;;;;;;43.88;25.27;;;;;;;43.27;20.00;99866.50;5132184;27;20183;-74
2021/08/09 07:56:16;;;;;;;47.97;23.20;;;;;;;43.38;19.70;99857.75;5132133;27;20122;-78
2021/08/09 07:58:42;;;;;;;33.88;20.83;;;;;;;43.13;19.84;99843.63;5132730;27;20503;-74
2021/08/09 08:01:08;;;;;;;38.97;20.60;;;;;;;43.40;19.46;99858.25;5132397;27;20071;-74
2021/08/09 08:03:35;;;;;;;124.15;93.53;;;;;;;44.78;18.59;99864.25;5132400;27;20039;-77
2021/08/09 08:06:01;;;;;;;76.22;49.28;;;;;;;43.83;18.98;99870.28;5133412;27;20071;-76
2021/08/09 08:08:27;;;;;;;43.47;25.75;;;;;;;43.04;19.54;99865.09;5132078;27;20043;-73
2021/08/09 08:10:54;;;;;;;52.58;31.95;;;;;;;43.34;19.39;99854.00;5132067;27;20035;-75
2021/08/09 08:13:19;;;;;;;44.55;28.90;;;;;;;43.15;19.84;99852.47;5132140;27;20402;-78
2021/08/09 08:15:45;;;;;;;44.42;28.67;;;;;;;43.52;18.89;99861.13;5115313;27;20114;-76
2021/08/09 08:18:11;;;;;;;40.28;24.02;;;;;;;44.13;18.43;99859.09;5127898;27;20125;-78
2021/08/09 08:20:38;;;;;;;40.10;24.42;;;;;;;43.88;18.78;99851.41;5133140;27;20047;-74
2021/08/09 08:23:04;;;;;;;33.97;20.40;;;;;;;43.98;18.57;99860.53;5130949;27;20043;-75
2021/08/09 08:25:32;;;;;;;41.65;25.45;;;;;;;43.48;19.12;99849.00;5131776;27;20043;-80
2021/08/09 08:27:59;;;;;;;32.63;20.77;;;;;;;42.64;19.52;99864.16;5133453;27;20035;-75
2021/08/09 08:30:24;;;;;;;33.60;19.10;;;;;;;42.98;19.93;99853.31;5131951;27;20385;-78
2021/08/09 08:32:50;;;;;;;37.10;19.65;;;;;;;43.83;19.04;99850.78;5131909;27;20058;-73
2021/08/09 08:35:16;;;;;;;34.85;19.13;;;;;;;44.27;18.60;99854.88;5133055;27;20127;-73
2021/08/09 08:37:43;;;;;;;30.35;20.10;;;;;;;43.11;19.07;99857.03;5132842;27;20373;-79
2021/08/09 08:40:10;;;;;;;29.58;18.42;;;;;;;42.95;19.27;99859.53;5114490;27;20083;-74
2021/08/09 08:42:39;;;;;;;41.28;20.58;;;;;;;42.86;19.20;99867.09;5131823;27;20045;-75
2021/08/09 08:45:08;;;;;;;32.20;19.77;;;;;;;42.55;19.79;99863.38;5134680;27;20054;-77
2021/08/09 08:47:34;;;;;;;31.33;17.77;;;;;;;42.59;19.80;99866.31;5134934;27;20407;-80
2021/08/09 08:50:03;;;;;;;31.55;17.80;;;;;;;42.23;19.64;99873.84;5118006;27;20414;-74
2021/08/09 08:52:29;;;;;;;32.15;18.35;;;;;;;42.51;19.24;99873.53;5134998;27;20039;-74
2021/08/09 08:54:55;;;;;;;29.92;17.83;;;;;;;42.60;19.08;99870.75;5134894;27;20046;-79
2021/08/09 08:57:22;;;;;;;;;;;;;;;41.87;19.78;99872.19;5154126;27;20035;-77
2021/08/09 08:59:48;;;;;;;31.17;16.77;;;;;;;42.17;19.08;99864.84;5153651;27;19958;-75
2021/08/09 09:02:36;;;;;;;27.52;16.17;;;;;;;43.75;18.01;99863.63;5153396;27;20043;-78
2021/08/09 09:05:08;;;;;;;33.55;18.08;;;;;;;43.32;18.49;99857.13;5153220;27;20134;-76
2021/08/09 09:07:35;;;;;;;33.67;18.48;;;;;;;43.45;18.42;99856.06;5153485;27;20039;-72
2021/08/09 09:10:24;;;;;;;36.88;21.70;;;;;;;44.49;17.06;99852.91;5153318;27;20038;-75
2021/08/09 09:13:18;;;;;;;30.25;17.42;;;;;;;45.14;17.01;99849.59;5153527;27;20511;-76
2021/08/09 09:16:08;;;;;;;29.40;17.90;;;;;;;45.24;16.78;99845.53;5153464;27;20047;-76
2021/08/09 09:18:52;;;;;;;32.70;18.38;;;;;;;43.40;18.62;99849.88;5153328;27;20499;-80
2021/08/09 09:21:28;;;;;;;30.55;17.63;;;;;;;43.10;19.15;99849.84;5134959;27;20047;-73
2021/08/09 09:24:06;;;;;;;27.70;16.80;;;;;;;43.96;18.00;99852.50;5155851;27;20053;-76
2021/08/09 09:26:32;;;;;;;27.20;15.75;;;;;;;44.39;17.69;99853.31;5157659;27;20129;-78
2021/08/09 09:29:06;;;;;;;29.08;16.30;;;;;;;44.62;17.87;99847.34;5139076;27;20469;-80
2021/08/09 09:31:32;;;;;;;29.95;15.48;;;;;;;44.50;17.60;99857.28;5157714;27;20542;-75
2021/08/09 09:34:02;;;;;;;26.83;16.60;;;;;;;44.37;17.36;99850.06;5157451;27;20130;-76
2021/08/09 09:36:45;;;;;;;31.42;16.50;;;;;;;44.04;17.25;99851.63;5156925;27;20031;-76
2021/08/09 09:39:33;;;;;;;27.05;15.93;;;;;;;43.89;17.77;99841.06;5156923;27;20083;-77
2021/08/09 09:42:04;;;;;;;30.17;16.83;;;;;;;43.81;18.09;99839.97;5157008;27;20487;-74
2021/08/09 09:44:32;;;;;;;33.63;18.13;;;;;;;43.58;18.25;99842.25;5157350;27;20043;-76
2021/08/09 09:47:21;;;;;;;30.45;16.73;;;;;;;44.21;17.61;99842.28;5157205;27;20050;-74
2021/08/09 09:49:48;;;;;;;25.60;17.35;;;;;;;44.33;17.62;99837.91;5157306;27;20039;-74
2021/08/09 09:52:44;;;;;;;30.58;16.70;;;;;;;44.20;17.64;99835.06;5156603;27;20057;-75
2021/08/09 09:55:12;;;;;;;31.38;17.95;;;;;;;43.41;17.91;99832.81;5156627;27;20426;-76
2021/08/09 09:57:39;;;;;;;32.97;17.25;;;;;;;43.25;18.54;99835.38;5156777;27;20108;-76
2021/08/09 10:00:08;;;;;;;31.98;16.88;;;;;;;43.27;18.40;99827.50;5156557;27;20407;-79
2021/08/09 10:02:48;;;;;;;26.92;15.80;;;;;;;43.52;17.89;99836.06;5157285;27;20039;-76
2021/08/09 10:05:15;;;;;;;36.38;17.25;;;;;;;43.80;17.65;99830.78;5156809;27;20094;-77
2021/08/09 10:07:45;;;;;;;32.28;17.65;;;;;;;43.49;17.90;99828.34;5156139;27;20049;-75
2021/08/09 10:10:11;;;;;;;32.38;16.75;;;;;;;43.36;18.48;99824.66;5156484;27;20412;-77
2021/08/09 10:12:38;;;;;;;33.45;17.70;;;;;;;43.36;18.40;99830.25;5156925;27;20047;-75
2021/08/09 10:15:06;;;;;;;32.38;17.40;;;;;;;42.04;19.33;99826.91;5156461;27;20131;-76
2021/08/09 10:17:32;;;;;;;34.28;17.63;;;;;;;40.83;20.90;99828.97;5156645;27;20043;-77
2021/08/09 10:20:01;;;;;;;34.25;17.73;;;;;;;39.94;22.08;99835.78;5156498;27;20042;-77
2021/08/09 10:22:28;;;;;;;31.60;20.17;;;;;;;39.53;22.45;99827.50;5156085;27;20042;-76
2021/08/09 10:24:56;;;;;;;38.85;18.52;;;;;;;39.69;22.56;99831.63;5156458;27;20121;-76
2021/08/09 10:27:48;;;;;;;35.33;17.23;;;;;;;39.95;22.63;99829.13;5137965;27;20049;-76
2021/08/09 10:30:21;;;;;;;32.85;18.45;;;;;;;40.16;21.98;99841.69;5142328;27;20050;-77
2021/08/09 10:32:53;;;;;;;45.35;19.30;;;;;;;40.01;21.71;99829.81;5156447;27;20076;-77
2021/08/09 10:35:43;;;;;;;37.80;18.75;;;;;;;40.26;21.64;99833.13;5155803;27;20110;-75
2021/08/09 10:38:19;;;;;;;42.45;20.77;;;;;;;39.40;22.53;99824.44;5156038;27;20043;-80
2021/08/09 10:41:08;;;;;;;58.70;21.73;;;;;;;38.02;24.89;99820.16;5156170;27;20039;-74
2021/08/09 10:43:37;;;;;;;27.75;18.50;;;;;;;37.35;25.01;99815.47;5156122;27;20399;-76
2021/08/09 10:46:36;;;;;;;34.35;18.30;;;;;;;36.78;25.49;99816.03;5155805;27;20046;-76
2021/08/09 10:49:02;;;;;;;29.63;18.00;;;;;;;36.44;26.15;99819.66;5155838;27;20091;-72
2021/08/09 10:51:57;;;;;;;;;;;;;;;36.53;26.10;99819.88;5156447;27;20118;-76
2021/08/09 10:54:28;;;;;;;36.88;17.33;;;;;;;37.22;25.90;99820.59;5141438;27;19923;-73
2021/08/09 10:56:55;;;;;;;31.20;16.50;;;;;;;36.88;25.28;99807.69;5155669;27;20121;-74
2021/08/09 10:59:41;;;;;;;32.78;16.67;;;;;;;36.68;25.61;99819.72;5155550;27;20043;-75
2021/08/09 11:02:25;;;;;;;46.55;27.50;;;;;;;36.54;26.01;99804.94;5155593;27;20091;-75
2021/08/09 11:05:17;;;;;;;28.35;15.93;;;;;;;36.23;26.65;99794.16;5155894;27;20043;-75
2021/08/09 11:07:46;;;;;;;31.33;15.93;;;;;;;36.63;26.25;99802.41;5155135;27;20054;-75
2021/08/09 11:10:12;;;;;;;32.08;16.38;;;;;;;36.31;25.67;99801.00;5155285;27;20039;-74
2021/08/09 11:12:57;;;;;;;28.10;15.50;;;;;;;35.31;27.12;99808.06;5155609;27;20511;-75
2021/08/09 11:15:23;;;;;;;31.73;15.88;;;;;;;35.08;27.38;99812.28;5136957;27;20035;-76
2021/08/09 11:17:50;;;;;;;27.33;15.30;;;;;;;34.88;27.76;99812.31;5155399;27;20043;-75
2021/08/09 11:20:26;;;;;;;27.75;16.08;;;;;;;34.92;28.05;99806.00;5155135;27;20034;-76
2021/08/09 11:23:02;;;;;;;30.08;16.02;;;;;;;34.78;28.00;99810.38;5155364;27;20126;-75
2021/08/09 11:25:48;;;;;;;55.30;33.28;;;;;;;34.35;28.39;99803.25;5154828;27;20463;-74
2021/08/09 11:28:25;;;;;;;26.50;14.95;;;;;;;34.67;28.65;99804.09;5154718;27;20495;-74
2021/08/09 11:31:04;;;;;;;25.17;15.50;;;;;;;34.22;29.22;99802.94;5155004;27;20053;-74